Time;durP1;ratioP1;P1;durP2;ratioP2;P2;SDS_P1;SDS_P2;PMS_P1;PMS_P2;Temp;Humidity;BMP_temperature;BMP_pressure;BME280_temperature;BME280_humidity;BME280_pressure;Samples;Min_cycle;Max_cycle;Signal;HPM_P1;HPM_P2
2022/08/03 00:02:40;;;;;;;4.60;3.17;;;;;;;;;;5121205;28;20048;-78
2022/08/03 00:05:26;;;;;;;3.10;2.72;;;;;;;;;;5124048;28;20039;-79
2022/08/03 00:08:11;;;;;;;2.50;2.30;;;;;;;;;;5125561;28;20039;-80
2022/08/03 00:10:58;;;;;;;3.10;2.38;;;;;;;;;;5125948;28;20400;-79
2022/08/03 00:13:44;;;;;;;2.58;2.35;;;;;;;;;;5117228;28;20043;-80
2022/08/03 00:16:42;;;;;;;3.08;2.40;;;;;;;;;;5116888;28;20040;-79
2022/08/03 00:19:28;;;;;;;3.70;2.58;;;;;;;;;;5108127;28;20047;-81
2022/08/03 00:22:14;;;;;;;2.63;2.30;;;;;;;;;;5116958;28;20039;-80
2022/08/03 00:25:00;;;;;;;2.75;2.20;;;;;;;;;;5115751;28;20048;-79
2022/08/03 00:27:46;;;;;;;2.50;2.30;;;;;;;;;;5123896;28;20384;-79
2022/08/03 00:30:32;;;;;;;4.90;2.90;;;;;;;;;;5123869;28;20480;-81
2022/08/03 00:33:17;;;;;;;4.47;2.13;;;;;;;;;;5108845;28;20043;-81
2022/08/03 00:36:02;;;;;;;2.65;2.38;;;;;;;;;;5116886;28;20047;-78
2022/08/03 00:38:48;;;;;;;3.00;2.50;;;;;;;;;;5116936;28;20465;-81
2022/08/03 00:41:33;;;;;;;3.75;2.55;;;;;;;;;;5115301;28;20043;-79
2022/08/03 00:44:19;;;;;;;4.68;2.50;;;;;;;;;;5122515;28;20039;-80
2022/08/03 00:47:04;;;;;;;4.43;2.85;;;;;;;;;;5117008;28;20476;-79
2022/08/03 00:49:50;;;;;;;4.05;3.30;;;;;;;;;;5123756;28;20044;-80
2022/08/03 00:52:36;;;;;;;4.82;3.10;;;;;;;;;;5123991;28;20040;-81
2022/08/03 00:55:23;;;;;;;3.38;2.92;;;;;;;;;;5117464;28;20051;-80
2022/08/03 00:58:10;;;;;;;3.55;2.97;;;;;;;;;;5116795;28;20043;-80
2022/08/03 01:00:55;;;;;;;5.45;3.20;;;;;;;;;;5116602;28;20043;-81
2022/08/03 01:03:41;;;;;;;4.90;3.10;;;;;;;;;;5118831;28;20040;-80
2022/08/03 01:06:41;;;;;;;6.75;2.95;;;;;;;;;;5118095;28;20047;-82
2022/08/03 01:10:05;;;;;;;3.25;2.80;;;;;;;;;;5117610;28;20036;-78
2022/08/03 01:13:05;;;;;;;3.10;2.67;;;;;;;;;;5112224;28;20056;-81
2022/08/03 01:16:19;;;;;;;3.55;2.75;;;;;;;;;;5119003;28;20043;-82
2022/08/03 01:19:41;;;;;;;3.40;3.10;;;;;;;;;;5117130;28;20052;-79
2022/08/03 01:22:54;;;;;;;5.60;3.00;;;;;;;;;;5034514;28;20045;-79
2022/08/03 01:25:43;;;;;;;6.57;3.25;;;;;;;;;;5117150;28;20388;-79
2022/08/03 01:28:41;;;;;;;4.70;3.10;;;;;;;;;;5116015;28;20488;-79
2022/08/03 01:31:31;;;;;;;4.68;2.92;;;;;;;;;;5116673;28;20472;-78
2022/08/03 01:34:19;;;;;;;3.42;2.67;;;;;;;;;;5115687;28;20043;-78
2022/08/03 01:37:08;;;;;;;3.75;2.95;;;;;;;;;;5114978;28;20047;-79
2022/08/03 01:39:56;;;;;;;3.10;2.70;;;;;;;;;;5114327;28;20036;-81
2022/08/03 01:42:44;;;;;;;2.97;2.67;;;;;;;;;;5115126;28;20404;-79
2022/08/03 01:45:30;;;;;;;4.03;3.13;;;;;;;;;;5115302;28;20480;-81
2022/08/03 01:48:17;;;;;;;4.22;3.10;;;;;;;;;;5122843;28;20384;-81
2022/08/03 01:51:03;;;;;;;3.33;2.80;;;;;;;;;;5115626;28;20047;-81
2022/08/03 01:53:53;;;;;;;2.65;2.45;;;;;;;;;;5114372;28;20040;-79
2022/08/03 01:56:39;;;;;;;4.35;2.78;;;;;;;;;;5121847;28;20044;-78
2022/08/03 01:59:28;;;;;;;3.35;3.03;;;;;;;;;;5120151;28;20036;-78
2022/08/03 02:02:15;;;;;;;3.60;2.75;;;;;;;;;;5118530;28;20048;-79
2022/08/03 02:05:05;;;;;;;6.00;3.05;;;;;;;;;;5118491;28;20393;-81
2022/08/03 02:07:51;;;;;;;3.72;3.10;;;;;;;;;;5117098;28;20396;-80
2022/08/03 02:10:40;;;;;;;3.17;2.35;;;;;;;;;;5125702;28;20043;-79
2022/08/03 02:13:26;;;;;;;4.32;2.60;;;;;;;;;;5117004;28;20043;-80
2022/08/03 02:16:12;;;;;;;5.72;2.90;;;;;;;;;;5115487;28;20048;-80
2022/08/03 02:19:00;;;;;;;3.05;2.58;;;;;;;;;;5115024;28;20043;-80
2022/08/03 02:21:46;;;;;;;3.95;2.65;;;;;;;;;;5115344;28;20039;-79
2022/08/03 02:24:32;;;;;;;3.95;2.83;;;;;;;;;;5114614;28;20047;-79
2022/08/03 02:27:21;;;;;;;3.63;2.80;;;;;;;;;;5114601;28;20043;-78
2022/08/03 02:30:09;;;;;;;3.13;2.47;;;;;;;;;;5114284;28;20039;-77
2022/08/03 02:32:55;;;;;;;3.20;2.90;;;;;;;;;;5114233;28;20040;-78
2022/08/03 02:35:43;;;;;;;3.85;2.88;;;;;;;;;;5121262;28;20051;-78
2022/08/03 02:38:33;;;;;;;4.45;2.58;;;;;;;;;;5114796;28;20048;-78
2022/08/03 02:41:23;;;;;;;3.15;2.60;;;;;;;;;;5114480;28;20040;-78
2022/08/03 02:44:11;;;;;;;4.05;2.90;;;;;;;;;;5114487;28;20044;-80
2022/08/03 02:47:00;;;;;;;5.25;3.20;;;;;;;;;;5115260;28;20036;-80
2022/08/03 02:49:50;;;;;;;4.70;2.90;;;;;;;;;;5114972;28;20040;-80
2022/08/03 02:52:35;;;;;;;3.97;3.30;;;;;;;;;;5114801;28;20036;-78
2022/08/03 02:55:22;;;;;;;3.38;3.05;;;;;;;;;;5114550;28;20043;-80
2022/08/03 02:58:09;;;;;;;6.63;3.30;;;;;;;;;;5115235;28;20043;-80
2022/08/03 03:00:55;;;;;;;7.18;3.17;;;;;;;;;;5114145;28;20043;-78
2022/08/03 03:03:40;;;;;;;5.13;3.03;;;;;;;;;;5121615;28;20047;-78
2022/08/03 03:06:27;;;;;;;5.80;3.13;;;;;;;;;;5118490;28;20047;-78
2022/08/03 03:09:13;;;;;;;3.53;3.10;;;;;;;;;;5118531;28;20043;-79
2022/08/03 03:11:59;;;;;;;4.53;3.28;;;;;;;;;;5126083;28;20043;-80
2022/08/03 03:14:45;;;;;;;3.83;3.17;;;;;;;;;;5125773;28;20047;-79
2022/08/03 03:17:31;;;;;;;4.50;3.20;;;;;;;;;;5126174;28;20043;-80
2022/08/03 03:20:17;;;;;;;3.53;3.10;;;;;;;;;;5118020;28;20476;-77
2022/08/03 03:23:04;;;;;;;3.60;2.70;;;;;;;;;;5124331;28;20047;-78
2022/08/03 03:25:52;;;;;;;3.85;2.88;;;;;;;;;;5118381;28;20047;-80
2022/08/03 03:28:38;;;;;;;3.97;3.08;;;;;;;;;;5118416;28;20039;-80
2022/08/03 03:31:24;;;;;;;4.70;3.00;;;;;;;;;;5125059;28;20043;-78
2022/08/03 03:34:10;;;;;;;3.40;3.10;;;;;;;;;;5118219;28;20484;-80
2022/08/03 03:36:55;;;;;;;3.90;3.25;;;;;;;;;;5125439;28;20472;-80
2022/08/03 03:39:41;;;;;;;7.20;3.38;;;;;;;;;;5118868;28;20047;-79
2022/08/03 03:42:29;;;;;;;7.93;3.08;;;;;;;;;;5118399;28;20044;-80
2022/08/03 03:45:15;;;;;;;4.38;3.20;;;;;;;;;;5124940;28;20047;-77
2022/08/03 03:48:03;;;;;;;4.97;3.00;;;;;;;;;;5124493;28;20043;-78
2022/08/03 03:50:49;;;;;;;5.43;3.17;;;;;;;;;;5117478;28;20044;-78
2022/08/03 03:53:33;;;;;;;4.18;3.53;;;;;;;;;;5117713;28;20047;-78
2022/08/03 03:56:19;;;;;;;6.13;3.25;;;;;;;;;;5125264;28;20048;-80
2022/08/03 03:59:05;;;;;;;4.10;3.58;;;;;;;;;;5117727;28;20035;-79
2022/08/03 04:01:51;;;;;;;6.28;2.95;;;;;;;;;;5116705;28;20035;-78
2022/08/03 04:11:17;;;;;;;3.72;2.90;;;;;;;;;;5116664;28;20047;-78
2022/08/03 04:14:06;;;;;;;5.68;3.05;;;;;;;;;;5116582;28;20040;-80
2022/08/03 04:16:57;;;;;;;4.35;3.38;;;;;;;;;;5122348;28;20039;-77
2022/08/03 04:19:48;;;;;;;4.55;3.05;;;;;;;;;;5116340;28;20040;-80
2022/08/03 04:22:36;;;;;;;4.38;3.53;;;;;;;;;;5116217;28;20040;-79
2022/08/03 04:25:26;;;;;;;4.35;3.75;;;;;;;;;;5115263;28;20043;-82
2022/08/03 04:28:13;;;;;;;5.85;4.57;;;;;;;;;;5116582;28;20043;-82
2022/08/03 04:31:00;;;;;;;5.78;4.82;;;;;;;;;;5116340;28;20043;-79
2022/08/03 04:33:45;;;;;;;5.65;4.20;;;;;;;;;;5116108;28;20052;-82
2022/08/03 04:36:32;;;;;;;14.05;4.07;;;;;;;;;;5116068;28;20036;-82
2022/08/03 04:39:26;;;;;;;4.82;3.60;;;;;;;;;;5116222;28;20047;-82
2022/08/03 04:42:13;;;;;;;6.32;3.80;;;;;;;;;;5123169;28;20043;-80
2022/08/03 04:45:03;;;;;;;4.78;3.33;;;;;;;;;;5116089;28;20036;-78
2022/08/03 04:47:49;;;;;;;4.63;3.10;;;;;;;;;;5116049;28;20040;-77
2022/08/03 04:50:34;;;;;;;7.03;3.08;;;;;;;;;;5115529;28;20048;-78
2022/08/03 04:53:22;;;;;;;4.28;2.78;;;;;;;;;;5116032;28;20039;-78
2022/08/03 04:56:08;;;;;;;12.75;3.70;;;;;;;;;;5115935;28;20047;-78
2022/08/03 04:58:54;;;;;;;5.85;3.28;;;;;;;;;;5121713;28;20044;-78
2022/08/03 05:01:41;;;;;;;4.00;3.13;;;;;;;;;;5115441;28;20464;-78
2022/08/03 05:04:26;;;;;;;4.80;2.75;;;;;;;;;;5115779;28;20044;-78
2022/08/03 05:07:12;;;;;;;5.03;3.00;;;;;;;;;;5115544;28;20039;-78
2022/08/03 05:09:58;;;;;;;7.50;2.95;;;;;;;;;;5122182;28;20043;-80
2022/08/03 05:12:47;;;;;;;4.43;2.97;;;;;;;;;;5121405;28;20400;-80
2022/08/03 05:15:32;;;;;;;4.63;2.50;;;;;;;;;;5115388;28;20044;-77
2022/08/03 05:18:18;;;;;;;11.23;3.05;;;;;;;;;;5122156;28;20047;-81
2022/08/03 05:21:03;;;;;;;5.63;2.75;;;;;;;;;;5115073;28;20051;-79
2022/08/03 05:23:49;;;;;;;4.88;3.08;;;;;;;;;;5115870;28;20048;-82
2022/08/03 05:26:34;;;;;;;3.25;2.50;;;;;;;;;;5122064;28;20400;-79
2022/08/03 05:29:20;;;;;;;3.67;2.60;;;;;;;;;;5121383;28;20044;-79
2022/08/03 05:32:06;;;;;;;3.60;2.75;;;;;;;;;;5122300;28;20047;-82
2022/08/03 05:34:51;;;;;;;6.53;2.92;;;;;;;;;;5115720;28;20035;-81
2022/08/03 05:37:37;;;;;;;8.07;2.92;;;;;;;;;;5115221;28;20043;-82
2022/08/03 05:40:21;;;;;;;5.20;2.80;;;;;;;;;;5115019;28;20039;-80
2022/08/03 05:43:07;;;;;;;2.63;2.30;;;;;;;;;;5114470;28;20047;-82
2022/08/03 05:45:53;;;;;;;3.92;2.63;;;;;;;;;;5115020;28;20043;-82
2022/08/03 05:48:40;;;;;;;9.02;2.85;;;;;;;;;;5121220;28;20043;-79
2022/08/03 05:51:27;;;;;;;5.00;2.72;;;;;;;;;;5114707;28;20044;-82
2022/08/03 05:54:13;;;;;;;3.75;2.72;;;;;;;;;;5114679;28;20043;-80
2022/08/03 05:56:58;;;;;;;9.80;3.40;;;;;;;;;;5121690;28;20039;-82
2022/08/03 05:59:43;;;;;;;18.92;11.68;;;;;;;;;;5114105;28;20051;-80
2022/08/03 06:02:29;;;;;;;3.20;2.65;;;;;;;;;;5113617;28;20473;-81
2022/08/03 06:05:15;;;;;;;4.75;2.80;;;;;;;;;;5120645;28;20039;-80
2022/08/03 06:08:01;;;;;;;9.45;3.40;;;;;;;;;;5112781;28;20044;-77
2022/08/03 06:10:46;;;;;;;6.05;3.33;;;;;;;;;;5120428;28;20043;-77
2022/08/03 06:13:32;;;;;;;6.45;3.30;;;;;;;;;;5113814;28;20099;-77
2022/08/03 06:16:17;;;;;;;4.63;3.63;;;;;;;;;;5120396;28;20047;-77
2022/08/03 06:19:03;;;;;;;4.93;3.40;;;;;;;;;;5113691;28;20480;-77
2022/08/03 06:21:49;;;;;;;4.15;3.53;;;;;;;;;;5113826;28;20396;-79
2022/08/03 06:24:34;;;;;;;8.45;6.90;;;;;;;;;;5113992;28;20051;-79
2022/08/03 06:27:19;;;;;;;3.78;3.10;;;;;;;;;;5120740;28;20043;-77
2022/08/03 06:30:07;;;;;;;18.45;15.57;;;;;;;;;;5113978;28;20044;-75
2022/08/03 06:32:53;;;;;;;5.65;5.05;;;;;;;;;;5113413;28;20044;-79
2022/08/03 06:35:38;;;;;;;5.13;3.72;;;;;;;;;;5113877;28;20040;-78
2022/08/03 06:38:24;;;;;;;4.50;2.90;;;;;;;;;;5114001;28;20043;-79
2022/08/03 06:41:09;;;;;;;7.85;3.20;;;;;;;;;;5124550;28;20035;-79
2022/08/03 06:43:55;;;;;;;4.68;2.92;;;;;;;;;;5118275;28;20036;-79
2022/08/03 06:46:42;;;;;;;10.73;8.18;;;;;;;;;;5124583;28;20044;-78
2022/08/03 06:49:27;;;;;;;6.35;3.30;;;;;;;;;;5124938;28;20048;-78
2022/08/03 06:52:12;;;;;;;7.18;4.55;;;;;;;;;;5118258;28;20048;-78
2022/08/03 06:54:58;;;;;;;3.22;2.92;;;;;;;;;;5117223;28;20039;-76
2022/08/03 06:57:43;;;;;;;4.25;2.95;;;;;;;;;;5124660;28;20044;-77
2022/08/03 07:00:29;;;;;;;5.15;3.05;;;;;;;;;;5116950;28;20404;-78
2022/08/03 07:03:16;;;;;;;5.75;3.00;;;;;;;;;;5124357;28;20048;-78
2022/08/03 07:06:01;;;;;;;7.38;3.05;;;;;;;;;;5117752;28;20051;-76
2022/08/03 07:08:46;;;;;;;6.85;3.08;;;;;;;;;;5117102;28;20047;-75
2022/08/03 07:11:32;;;;;;;4.43;3.25;;;;;;;;;;5116799;28;20416;-77
2022/08/03 07:14:17;;;;;;;7.47;4.03;;;;;;;;;;5122883;28;20047;-77
2022/08/03 07:17:03;;;;;;;4.72;2.83;;;;;;;;;;5122138;28;20506;-78
2022/08/03 07:19:49;;;;;;;6.75;2.78;;;;;;;;;;5116295;28;20040;-78
2022/08/03 07:22:35;;;;;;;4.50;3.00;;;;;;;;;;5123639;28;20048;-79
2022/08/03 07:25:21;;;;;;;3.65;2.53;;;;;;;;;;5123620;28;20388;-78
2022/08/03 07:28:07;;;;;;;4.78;2.92;;;;;;;;;;5116406;28;20047;-78
2022/08/03 07:30:52;;;;;;;3.45;2.38;;;;;;;;;;5123444;28;20048;-77
2022/08/03 07:33:37;;;;;;;4.82;2.63;;;;;;;;;;5123330;28;20047;-78
2022/08/03 07:36:23;;;;;;;3.03;2.50;;;;;;;;;;5116650;28;20048;-77
2022/08/03 07:39:10;;;;;;;4.43;2.60;;;;;;;;;;5123875;28;20040;-78
2022/08/03 07:41:55;;;;;;;3.55;2.90;;;;;;;;;;5117053;28;20051;-80
2022/08/03 07:44:40;;;;;;;4.05;2.92;;;;;;;;;;5115150;28;20039;-80
2022/08/03 07:47:29;;;;;;;3.33;2.50;;;;;;;;;;5116904;28;20048;-78
2022/08/03 07:50:14;;;;;;;7.82;2.80;;;;;;;;;;5123585;28;20047;-79
2022/08/03 07:53:00;;;;;;;3.28;2.42;;;;;;;;;;5116868;28;20052;-77
2022/08/03 07:55:45;;;;;;;6.10;2.38;;;;;;;;;;5116923;28;20047;-78
2022/08/03 07:58:31;;;;;;;4.60;2.42;;;;;;;;;;5123114;28;20040;-79
2022/08/03 08:01:18;;;;;;;4.25;2.60;;;;;;;;;;5123543;28;20047;-77
2022/08/03 08:04:03;;;;;;;4.13;2.30;;;;;;;;;;5123295;28;20439;-78
2022/08/03 08:06:49;;;;;;;5.72;4.00;;;;;;;;;;5116640;28;20075;-78
2022/08/03 08:09:34;;;;;;;3.30;2.70;;;;;;;;;;5116671;28;20044;-78
2022/08/03 08:12:20;;;;;;;13.38;9.13;;;;;;;;;;5116833;28;20051;-80
2022/08/03 08:15:07;;;;;;;72.65;61.85;;;;;;;;;;5116424;28;20047;-77
2022/08/03 08:17:55;;;;;;;8.32;5.00;;;;;;;;;;5117106;28;20052;-77
2022/08/03 08:20:41;;;;;;;4.35;2.50;;;;;;;;;;5116488;28;20043;-78
2022/08/03 08:23:26;;;;;;;14.27;10.68;;;;;;;;;;5116221;28;20404;-78
2022/08/03 08:26:12;;;;;;;4.85;2.20;;;;;;;;;;5116114;28;20039;-80
2022/08/03 08:28:57;;;;;;;4.55;2.78;;;;;;;;;;5116324;28;20040;-81
2022/08/03 08:31:43;;;;;;;4.38;2.50;;;;;;;;;;5116213;28;20384;-80
2022/08/03 08:34:28;;;;;;;5.63;2.92;;;;;;;;;;5116336;28;20043;-84
2022/08/03 08:37:14;;;;;;;2.92;2.50;;;;;;;;;;5115828;28;20039;-80
2022/08/03 08:40:00;;;;;;;5.53;2.40;;;;;;;;;;5115390;28;20039;-79
2022/08/03 08:42:46;;;;;;;3.90;2.20;;;;;;;;;;5122611;28;20040;-80
2022/08/03 08:45:32;;;;;;;4.50;2.38;;;;;;;;;;5115973;28;20485;-79
2022/08/03 08:48:24;;;;;;;3.30;2.42;;;;;;;;;;5115757;28;20040;-80
2022/08/03 08:51:12;;;;;;;3.85;2.17;;;;;;;;;;5122075;28;20048;-79
2022/08/03 08:54:02;;;;;;;3.22;2.63;;;;;;;;;;5116076;28;20055;-80
2022/08/03 08:56:50;;;;;;;3.47;2.30;;;;;;;;;;5115639;28;20036;-79
2022/08/03 08:59:36;;;;;;;3.08;2.28;;;;;;;;;;5115395;28;20040;-79
2022/08/03 09:02:23;;;;;;;2.20;2.00;;;;;;;;;;5114882;28;20040;-81
2022/08/03 09:05:15;;;;;;;3.13;2.28;;;;;;;;;;5122325;28;20043;-79
2022/08/03 09:08:01;;;;;;;7.28;2.15;;;;;;;;;;5115398;28;20043;-80
2022/08/03 09:10:46;;;;;;;5.45;2.53;;;;;;;;;;5114557;28;20048;-79
2022/08/03 09:13:33;;;;;;;4.15;2.50;;;;;;;;;;5115679;28;20464;-79
2022/08/03 09:16:20;;;;;;;2.42;2.00;;;;;;;;;;5114538;28;20047;-79
2022/08/03 09:19:13;;;;;;;5.38;2.20;;;;;;;;;;5115678;28;20040;-79
2022/08/03 09:22:16;;;;;;;5.03;2.40;;;;;;;;;;5115089;28;20044;-78
2022/08/03 09:25:06;;;;;;;3.63;2.17;;;;;;;;;;5122162;28;20048;-80
2022/08/03 09:27:51;;;;;;;4.40;2.40;;;;;;;;;;5115229;28;20044;-80
2022/08/03 09:30:40;;;;;;;5.05;2.13;;;;;;;;;;5115007;28;20043;-82
2022/08/03 09:33:25;;;;;;;2.15;1.90;;;;;;;;;;5114943;28;20047;-81
2022/08/03 09:36:39;;;;;;;3.70;2.25;;;;;;;;;;5121572;28;20039;-80
2022/08/03 09:39:31;;;;;;;3.08;2.10;;;;;;;;;;5121726;28;20039;-82
2022/08/03 09:42:18;;;;;;;3.90;2.13;;;;;;;;;;5114794;28;20047;-81
2022/08/03 09:45:06;;;;;;;3.40;1.98;;;;;;;;;;5114076;28;20043;-82
2022/08/03 09:47:51;;;;;;;3.83;2.10;;;;;;;;;;5121855;28;20047;-82
2022/08/03 09:51:01;;;;;;;3.03;2.10;;;;;;;;;;5121584;28;20044;-80
2022/08/03 09:53:45;;;;;;;2.20;2.00;;;;;;;;;;5114477;28;20040;-81
2022/08/03 09:56:46;;;;;;;4.20;2.00;;;;;;;;;;5114567;28;20048;-81
2022/08/03 09:59:32;;;;;;;4.65;1.90;;;;;;;;;;5118475;28;20039;-81
2022/08/03 10:02:26;;;;;;;2.25;2.05;;;;;;;;;;5114441;28;20044;-81
2022/08/03 10:05:12;;;;;;;3.72;2.20;;;;;;;;;;5114523;28;20047;-79
2022/08/03 10:07:57;;;;;;;3.70;1.85;;;;;;;;;;5114240;28;20043;-78
2022/08/03 10:10:45;;;;;;;2.60;1.70;;;;;;;;;;5121374;28;20048;-77
2022/08/03 10:13:31;;;;;;;2.75;1.95;;;;;;;;;;5120184;28;20051;-77
2022/08/03 10:16:16;;;;;;;2.80;1.75;;;;;;;;;;5121128;28;20055;-76
2022/08/03 10:19:04;;;;;;;2.88;1.77;;;;;;;;;;5114124;28;20040;-76
2022/08/03 10:21:55;;;;;;;5.40;1.90;;;;;;;;;;5120864;28;20044;-77
2022/08/03 10:25:05;;;;;;;2.50;1.77;;;;;;;;;;5121199;28;20039;-77
2022/08/03 10:27:52;;;;;;;2.92;1.70;;;;;;;;;;5116931;28;20492;-76
2022/08/03 10:30:42;;;;;;;6.40;1.75;;;;;;;;;;5114060;28;20481;-78
2022/08/03 10:33:30;;;;;;;3.28;1.63;;;;;;;;;;5114252;28;20044;-78
2022/08/03 10:36:17;;;;;;;3.13;1.70;;;;;;;;;;5120693;28;20044;-78
2022/08/03 10:39:03;;;;;;;7.47;1.73;;;;;;;;;;5121149;28;20044;-78
2022/08/03 10:41:51;;;;;;;1.60;1.50;;;;;;;;;;5119589;28;20044;-79
2022/08/03 10:44:38;;;;;;;3.78;1.67;;;;;;;;;;5119735;28;20051;-78
2022/08/03 10:47:23;;;;;;;2.13;1.60;;;;;;;;;;5120724;28;20388;-79
2022/08/03 10:50:11;;;;;;;3.00;1.50;;;;;;;;;;5120635;28;20388;-78
2022/08/03 10:53:01;;;;;;;3.05;1.88;;;;;;;;;;5113580;28;20488;-76
2022/08/03 10:58:53;;;;;;;2.88;1.40;;;;;;;;;;5119506;28;20052;-76
2022/08/03 11:01:49;;;;;;;1.60;1.50;;;;;;;;;;5114235;28;20047;-76
2022/08/03 11:04:34;;;;;;;4.47;1.70;;;;;;;;;;5120321;28;20040;-79
2022/08/03 11:07:24;;;;;;;2.60;1.80;;;;;;;;;;5113857;28;20047;-78
2022/08/03 11:10:29;;;;;;;3.45;1.80;;;;;;;;;;5113645;28;20048;-78
2022/08/03 11:13:18;;;;;;;3.47;1.75;;;;;;;;;;5113734;28;20032;-77
2022/08/03 11:16:18;;;;;;;2.58;1.85;;;;;;;;;;5120611;28;20044;-77
2022/08/03 11:19:10;;;;;;;1.70;1.50;;;;;;;;;;5113551;28;20047;-78
2022/08/03 11:21:56;;;;;;;1.95;1.63;;;;;;;;;;5119514;28;20052;-78
2022/08/03 11:24:53;;;;;;;4.05;1.60;;;;;;;;;;5120489;28;20032;-77
2022/08/03 11:27:38;;;;;;;3.50;1.73;;;;;;;;;;5122805;28;20051;-78
2022/08/03 11:30:25;;;;;;;9.73;3.50;;;;;;;;;;5123989;28;20044;-76
2022/08/03 11:33:28;;;;;;;3.65;1.50;;;;;;;;;;5117234;28;20484;-76
2022/08/03 11:36:15;;;;;;;1.97;1.50;;;;;;;;;;5117229;28;20035;-76
2022/08/03 11:39:15;;;;;;;1.73;1.60;;;;;;;;;;5123873;28;20284;-79
2022/08/03 11:42:21;;;;;;;3.33;1.83;;;;;;;;;;5124264;28;20480;-80
2022/08/03 11:45:08;;;;;;;2.88;1.73;;;;;;;;;;5116898;28;20044;-78
2022/08/03 11:47:54;;;;;;;8.90;2.22;;;;;;;;;;5123497;28;20047;-79
2022/08/03 11:50:43;;;;;;;6.97;2.20;;;;;;;;;;5123512;28;20040;-79
2022/08/03 11:53:29;;;;;;;7.57;1.92;;;;;;;;;;5124042;28;20040;-78
2022/08/03 11:56:14;;;;;;;3.13;1.50;;;;;;;;;;5117520;28;20411;-81
2022/08/03 11:59:00;;;;;;;7.18;1.60;;;;;;;;;;5116907;28;20048;-78
2022/08/03 12:01:45;;;;;;;4.50;2.10;;;;;;;;;;5123974;28;20047;-79
2022/08/03 12:04:31;;;;;;;3.35;1.83;;;;;;;;;;5124585;28;20039;-80
2022/08/03 12:07:17;;;;;;;2.00;1.33;;;;;;;;;;5116061;28;20047;-80
2022/08/03 12:10:05;;;;;;;1.98;1.58;;;;;;;;;;5116456;28;20043;-79
2022/08/03 12:12:56;;;;;;;3.72;1.60;;;;;;;;;;5123657;28;20044;-77
2022/08/03 12:15:41;;;;;;;4.45;2.08;;;;;;;;;;5116393;28;20035;-78
2022/08/03 12:18:27;;;;;;;5.43;1.70;;;;;;;;;;5116308;28;20039;-79
2022/08/03 12:21:12;;;;;;;2.88;1.55;;;;;;;;;;5122870;28;20051;-77
2022/08/03 12:24:03;;;;;;;1.80;1.38;;;;;;;;;;5116267;28;20044;-77
2022/08/03 12:26:50;;;;;;;2.00;1.50;;;;;;;;;;5122316;28;20039;-77
2022/08/03 12:29:35;;;;;;;2.45;1.77;;;;;;;;;;5122967;28;20055;-78
2022/08/03 12:32:21;;;;;;;2.10;1.45;;;;;;;;;;5116253;28;20040;-78
2022/08/03 12:35:07;;;;;;;1.92;1.63;;;;;;;;;;5123895;28;20047;-76
2022/08/03 12:37:52;;;;;;;1.85;1.40;;;;;;;;;;5122038;28;20039;-73
2022/08/03 12:40:39;;;;;;;3.70;1.52;;;;;;;;;;5121951;28;20048;-74
2022/08/03 12:43:25;;;;;;;2.63;1.65;;;;;;;;;;5115934;28;20052;-75
2022/08/03 12:46:13;;;;;;;1.98;1.40;;;;;;;;;;5115637;28;20040;-76
2022/08/03 12:49:05;;;;;;;2.00;1.40;;;;;;;;;;5115718;28;20040;-75
2022/08/03 12:51:51;;;;;;;3.08;1.33;;;;;;;;;;5115852;28;20047;-79
2022/08/03 12:54:37;;;;;;;3.95;1.30;;;;;;;;;;5115985;28;20392;-75
2022/08/03 12:57:22;;;;;;;6.15;1.50;;;;;;;;;;5115279;28;20048;-75
2022/08/03 13:00:13;;;;;;;1.55;1.30;;;;;;;;;;5115141;28;20052;-77
2022/08/03 13:03:06;;;;;;;2.05;1.38;;;;;;;;;;5122320;28;20039;-79
2022/08/03 13:05:51;;;;;;;4.80;1.45;;;;;;;;;;5116470;28;20043;-79
2022/08/03 13:08:37;;;;;;;2.55;1.38;;;;;;;;;;5114959;28;20051;-79
2022/08/03 13:11:24;;;;;;;1.63;1.17;;;;;;;;;;5115641;28;20036;-78
2022/08/03 13:14:09;;;;;;;3.67;1.65;;;;;;;;;;5114648;28;20036;-78
2022/08/03 13:16:55;;;;;;;5.95;1.38;;;;;;;;;;5114764;28;20035;-79
2022/08/03 13:19:39;;;;;;;1.40;1.15;;;;;;;;;;5122168;28;20036;-79
2022/08/03 13:22:29;;;;;;;2.08;1.48;;;;;;;;;;5122392;28;20055;-78
2022/08/03 13:25:15;;;;;;;2.15;1.20;;;;;;;;;;5121912;28;20059;-78
2022/08/03 13:28:00;;;;;;;1.30;1.15;;;;;;;;;;5115337;28;20476;-78
2022/08/03 13:30:46;;;;;;;1.73;1.45;;;;;;;;;;5121808;28;20056;-78
2022/08/03 13:33:32;;;;;;;2.83;1.48;;;;;;;;;;5114946;28;20047;-78
2022/08/03 13:36:18;;;;;;;1.40;1.30;;;;;;;;;;5114838;28;20384;-79
2022/08/03 13:39:03;;;;;;;1.70;1.27;;;;;;;;;;5115032;28;20043;-79
2022/08/03 13:41:49;;;;;;;4.18;1.63;;;;;;;;;;5114935;28;20044;-79
2022/08/03 13:44:37;;;;;;;2.30;1.50;;;;;;;;;;5114588;28;20488;-78
2022/08/03 13:47:22;;;;;;;2.50;1.38;;;;;;;;;;5115068;28;20051;-79
2022/08/03 13:50:08;;;;;;;1.20;1.10;;;;;;;;;;5121901;28;20036;-79
2022/08/03 13:52:53;;;;;;;1.30;1.20;;;;;;;;;;5121997;28;20040;-78
2022/08/03 13:55:39;;;;;;;1.40;1.30;;;;;;;;;;5115125;28;20036;-79
2022/08/03 13:58:25;;;;;;;1.25;1.15;;;;;;;;;;5115758;28;20039;-79
2022/08/03 14:01:10;;;;;;;1.52;1.25;;;;;;;;;;5074537;28;20052;-79
2022/08/03 14:03:57;;;;;;;1.50;1.20;;;;;;;;;;5079725;28;20041;-78
2022/08/03 14:06:44;;;;;;;1.42;1.33;;;;;;;;;;5074321;28;20490;-79
2022/08/03 14:09:29;;;;;;;1.80;1.40;;;;;;;;;;5073543;28;20053;-79
2022/08/03 14:12:14;;;;;;;1.48;1.27;;;;;;;;;;5073881;28;20040;-79
2022/08/03 14:15:01;;;;;;;1.58;1.27;;;;;;;;;;5073834;28;20048;-79
2022/08/03 14:17:50;;;;;;;1.70;1.30;;;;;;;;;;5080255;28;20045;-79
2022/08/03 14:20:39;;;;;;;1.23;1.13;;;;;;;;;;5079943;28;20040;-78
2022/08/03 14:23:25;;;;;;;1.60;1.50;;;;;;;;;;5073587;28;20045;-78
2022/08/03 14:26:11;;;;;;;1.10;1.00;;;;;;;;;;5080535;28;20040;-78
2022/08/03 14:28:56;;;;;;;1.27;1.17;;;;;;;;;;5073779;28;20048;-78
2022/08/03 14:31:42;;;;;;;1.67;1.17;;;;;;;;;;5081189;28;20037;-80
2022/08/03 14:34:27;;;;;;;2.10;1.15;;;;;;;;;;5073994;28;20040;-79
2022/08/03 14:37:13;;;;;;;2.05;1.27;;;;;;;;;;5074203;28;20343;-79
2022/08/03 14:39:59;;;;;;;1.50;1.08;;;;;;;;;;5080800;28;20041;-79
2022/08/03 14:42:44;;;;;;;1.85;1.30;;;;;;;;;;5074013;28;20488;-79
2022/08/03 14:45:30;;;;;;;1.33;1.23;;;;;;;;;;5073885;28;20048;-78
2022/08/03 14:48:15;;;;;;;1.50;1.15;;;;;;;;;;5073078;28;20052;-79
2022/08/03 14:51:01;;;;;;;1.40;1.25;;;;;;;;;;5073056;28;20044;-79
2022/08/03 14:53:46;;;;;;;1.92;1.25;;;;;;;;;;5072589;28;20048;-78
2022/08/03 14:56:32;;;;;;;1.33;1.23;;;;;;;;;;5073300;28;20044;-79
2022/08/03 14:59:18;;;;;;;1.30;1.20;;;;;;;;;;5086465;28;20047;-78
2022/08/03 15:02:04;;;;;;;1.30;1.20;;;;;;;;;;5124917;28;20047;-79
2022/08/03 15:04:51;;;;;;;1.27;1.17;;;;;;;;;;5124340;28;20055;-78
2022/08/03 15:07:36;;;;;;;1.50;1.30;;;;;;;;;;5124085;28;20404;-79
2022/08/03 15:10:22;;;;;;;1.50;1.40;;;;;;;;;;5124854;28;20480;-79
2022/08/03 15:13:08;;;;;;;2.35;1.45;;;;;;;;;;5124593;28;20054;-79
2022/08/03 15:15:53;;;;;;;2.70;1.70;;;;;;;;;;5117787;28;20051;-79
2022/08/03 15:18:38;;;;;;;1.52;1.40;;;;;;;;;;5117594;28;20471;-79
2022/08/03 15:21:24;;;;;;;1.50;1.30;;;;;;;;;;5116233;28;20628;-79
2022/08/03 15:24:09;;;;;;;2.47;1.65;;;;;;;;;;5124218;28;20044;-78
2022/08/03 15:26:54;;;;;;;1.80;1.38;;;;;;;;;;5126310;28;20043;-79
2022/08/03 15:29:40;;;;;;;2.13;1.38;;;;;;;;;;5118967;28;20036;-79
2022/08/03 15:32:25;;;;;;;1.75;1.20;;;;;;;;;;5118582;28;20035;-78
2022/08/03 15:35:10;;;;;;;1.45;1.30;;;;;;;;;;5125479;28;20051;-79
2022/08/03 15:37:56;;;;;;;1.50;1.30;;;;;;;;;;5125006;28;20062;-79
2022/08/03 15:40:41;;;;;;;2.70;1.40;;;;;;;;;;5120399;28;20055;-79
2022/08/03 15:43:27;;;;;;;2.05;1.25;;;;;;;;;;5126781;28;20051;-79
2022/08/03 15:46:13;;;;;;;1.88;1.45;;;;;;;;;;5118472;28;20047;-78
2022/08/03 15:48:58;;;;;;;6.63;1.95;;;;;;;;;;5116403;28;20051;-79
2022/08/03 15:51:43;;;;;;;3.60;1.10;;;;;;;;;;5116663;28;20051;-78
2022/08/03 15:54:29;;;;;;;1.67;1.20;;;;;;;;;;5114837;28;20043;-79
2022/08/03 15:57:15;;;;;;;2.55;1.60;;;;;;;;;;5124543;28;20488;-78
2022/08/03 15:59:59;;;;;;;1.58;1.40;;;;;;;;;;5116132;28;20040;-79
2022/08/03 16:02:45;;;;;;;1.20;1.10;;;;;;;;;;5123614;28;20047;-79
2022/08/03 16:05:31;;;;;;;1.92;1.40;;;;;;;;;;5123975;28;20040;-79
2022/08/03 16:08:16;;;;;;;1.63;1.30;;;;;;;;;;5122837;28;20588;-79
2022/08/03 16:11:02;;;;;;;3.20;1.60;;;;;;;;;;5122599;28;20043;-78
2022/08/03 16:13:47;;;;;;;1.52;1.23;;;;;;;;;;5123243;28;20051;-79
2022/08/03 16:16:34;;;;;;;1.73;1.48;;;;;;;;;;5116567;28;20040;-79
2022/08/03 16:19:18;;;;;;;1.40;1.30;;;;;;;;;;5123150;28;20048;-79
2022/08/03 16:22:03;;;;;;;1.73;1.58;;;;;;;;;;5123342;28;20048;-81
2022/08/03 16:24:49;;;;;;;1.65;1.40;;;;;;;;;;5115690;28;20048;-78
2022/08/03 16:27:34;;;;;;;2.00;1.40;;;;;;;;;;5116519;28;20032;-79
2022/08/03 16:30:20;;;;;;;2.28;1.70;;;;;;;;;;5118084;28;20472;-79
2022/08/03 16:33:05;;;;;;;1.52;1.42;;;;;;;;;;5116211;28;20067;-78
2022/08/03 16:35:51;;;;;;;1.33;1.13;;;;;;;;;;5117202;28;20055;-78
2022/08/03 16:38:37;;;;;;;2.58;1.33;;;;;;;;;;5117084;28;20044;-78
2022/08/03 16:41:22;;;;;;;3.80;1.95;;;;;;;;;;5122852;28;20039;-78
2022/08/03 16:44:07;;;;;;;4.03;1.80;;;;;;;;;;5123166;28;20039;-78
2022/08/03 16:46:52;;;;;;;1.60;1.30;;;;;;;;;;5122550;28;20476;-79
2022/08/03 16:49:38;;;;;;;2.83;1.60;;;;;;;;;;5115953;28;20047;-78
2022/08/03 16:52:24;;;;;;;1.90;1.45;;;;;;;;;;5123285;28;20044;-79
2022/08/03 16:55:12;;;;;;;5.13;1.75;;;;;;;;;;5117082;28;20048;-78